Terminal Aerodrome Forecast
Issued by NWS

Home | Current Version | Previous Version | Text Only | Print | Product List | Glossary Off
Versions: 1 2 3 4 5 6 7 8 9 10 11 12 13 14 15

957
FTUS43 KIWX 280521
TAFSBN
TAF
KSBN 280521Z 2806/2906 09015G22KT 6SM -SHRA SCT025 OVC035
      TEMPO 2807/2811 4SM TSRA OVC020CB
     FM281100 09012KT P6SM OVC010
     FM290300 04005KT P6SM OVC015=

USA.gov is the U.S. government's official web portal to all federal, state and local government web resources and services.